createdAt,value
2018-07-01T00:01:25.910Z,41.01
2018-07-01T00:03:56.410Z,40.89
2018-07-01T00:06:26.682Z,40.92
2018-07-01T00:08:56.839Z,40.61
2018-07-01T00:11:27.648Z,40.48
2018-07-01T00:13:57.604Z,40.79
2018-07-01T00:16:27.875Z,40.98
2018-07-01T00:18:58.152Z,40.96
2018-07-01T00:21:28.490Z,40.91
2018-07-01T00:23:59.078Z,40.70
2018-07-01T00:26:29.843Z,41.04
2018-07-01T00:28:59.959Z,40.92
2018-07-01T00:31:30.080Z,41.01
2018-07-01T00:34:00.302Z,41.31
2018-07-01T00:36:30.422Z,41.41
2018-07-01T00:39:00.499Z,40.95
2018-07-01T00:41:30.451Z,40.85
2018-07-01T00:44:00.467Z,41.10
2018-07-01T00:46:31.092Z,40.91
2018-07-01T00:49:01.226Z,40.85
2018-07-01T00:51:31.298Z,40.97
2018-07-01T00:54:01.451Z,41.06
2018-07-01T00:56:32.057Z,40.75
2018-07-01T00:59:02.242Z,41.06
2018-07-01T01:01:33.408Z,40.87
2018-07-01T01:04:03.216Z,41.10
2018-07-01T01:06:33.890Z,41.46
2018-07-01T01:09:04.375Z,41.50
2018-07-01T01:11:34.448Z,41.64
2018-07-01T01:14:05.028Z,42.23
2018-07-01T01:16:35.259Z,42.56
2018-07-01T01:19:05.990Z,42.45
2018-07-01T01:21:36.077Z,42.75
2018-07-01T01:24:06.229Z,42.50
2018-07-01T01:26:36.391Z,42.60
2018-07-01T01:29:07.621Z,42.55
2018-07-01T01:31:38.806Z,43.39
2018-07-01T01:34:08.805Z,42.67
2018-07-01T01:36:40.102Z,42.92
2018-07-01T01:39:16.679Z,43.05
2018-07-01T01:41:51.034Z,43.74
2018-07-01T01:44:29.352Z,43.45
2018-07-01T01:47:01.275Z,43.44
2018-07-01T01:49:35.566Z,43.51
2018-07-01T01:52:09.795Z,43.49
2018-07-01T01:54:46.410Z,42.98
2018-07-01T01:57:30.322Z,43.07
2018-07-01T02:00:16.651Z,43.46
2018-07-01T02:02:58.807Z,43.78
2018-07-01T02:05:34.983Z,43.59
2018-07-01T02:08:07.560Z,43.52
2018-07-01T02:10:38.030Z,44.35
2018-07-01T02:13:08.200Z,43.85
2018-07-01T02:15:44.700Z,44.21
2018-07-01T02:18:14.977Z,44.01
2018-07-01T02:20:45.314Z,44.24
2018-07-01T02:23:19.271Z,44.40
2018-07-01T02:25:49.510Z,44.99
2018-07-01T02:28:20.343Z,44.71
2018-07-01T02:30:51.021Z,45.16
2018-07-01T02:33:22.067Z,45.69
2018-07-01T02:35:52.273Z,45.31
2018-07-01T02:38:22.938Z,45.19
2018-07-01T02:40:53.248Z,45.38
2018-07-01T02:43:23.475Z,45.72
2018-07-01T02:45:53.922Z,45.62
2018-07-01T02:48:24.063Z,45.23
2018-07-01T02:50:54.280Z,45.12
2018-07-01T02:53:24.780Z,46.04
2018-07-01T02:55:54.992Z,45.00
2018-07-01T02:58:25.236Z,45.77
2018-07-01T03:00:55.772Z,45.49
2018-07-01T03:03:25.953Z,45.86
2018-07-01T03:05:56.178Z,45.46
2018-07-01T03:08:26.623Z,45.66
2018-07-01T03:10:56.697Z,45.83
2018-07-01T03:13:27.396Z,46.25
2018-07-01T03:15:58.099Z,45.83
2018-07-01T03:18:28.389Z,46.32
2018-07-01T03:20:58.628Z,46.35
2018-07-01T03:23:28.524Z,46.88
2018-07-01T03:25:59.250Z,46.49
2018-07-01T03:28:29.499Z,46.41
2018-07-01T03:30:59.845Z,46.80
2018-07-01T03:33:29.825Z,46.05
2018-07-01T03:36:00.079Z,46.02
2018-07-01T03:38:30.598Z,46.92
2018-07-01T03:41:01.535Z,47.25
2018-07-01T03:43:31.654Z,46.42
2018-07-01T03:46:01.748Z,47.35
2018-07-01T03:48:32.216Z,46.24
2018-07-01T03:51:02.423Z,46.99
2018-07-01T03:53:32.902Z,47.22
2018-07-01T03:56:03.226Z,47.01
2018-07-01T03:58:33.714Z,47.05
2018-07-01T04:01:04.330Z,46.75
2018-07-01T04:03:34.594Z,46.50
2018-07-01T04:06:04.875Z,47.35
2018-07-01T04:08:35.514Z,47.34
2018-07-01T04:11:05.784Z,47.52
2018-07-01T04:13:36.520Z,46.93
2018-07-01T04:16:07.013Z,47.39
2018-07-01T04:18:42.254Z,47.27
2018-07-01T04:21:15.654Z,47.04
2018-07-01T04:23:46.599Z,46.25
2018-07-01T04:26:16.848Z,46.12
2018-07-01T04:28:47.019Z,46.89
2018-07-01T04:31:17.367Z,45.95
2018-07-01T04:33:47.578Z,46.04
2018-07-01T04:36:17.897Z,45.76
2018-07-01T04:38:48.243Z,44.74
2018-07-01T04:41:18.578Z,44.39
2018-07-01T04:43:48.754Z,44.41
2018-07-01T04:46:18.618Z,44.79
2018-07-01T04:48:48.770Z,44.61
2018-07-01T04:51:18.824Z,43.88
2018-07-01T04:53:49.267Z,44.59
2018-07-01T04:56:19.369Z,44.53
2018-07-01T04:58:50.887Z,44.18
2018-07-01T05:01:21.230Z,43.98
2018-07-01T05:03:51.347Z,43.85
2018-07-01T05:06:21.617Z,43.17
2018-07-01T05:08:51.886Z,43.77
2018-07-01T05:11:21.911Z,43.22
2018-07-01T05:13:58.436Z,43.08
2018-07-01T05:16:28.763Z,44.22
2018-07-01T05:18:58.863Z,44.95
2018-07-01T05:21:29.302Z,44.01
2018-07-01T05:23:59.534Z,43.57
2018-07-01T05:26:29.527Z,43.38
2018-07-01T05:29:00.093Z,43.60
2018-07-01T05:31:30.521Z,43.49
2018-07-01T05:34:00.865Z,43.80
2018-07-01T05:36:31.139Z,44.39
2018-07-01T05:39:01.423Z,44.01
2018-07-01T05:41:31.399Z,44.06
2018-07-01T05:44:01.675Z,45.32
2018-07-01T05:46:31.839Z,45.28
2018-07-01T05:49:02.241Z,44.67
2018-07-01T05:51:32.820Z,45.05
2018-07-01T05:54:02.903Z,45.49
2018-07-01T05:56:33.256Z,44.13
2018-07-01T05:59:03.788Z,44.02
2018-07-01T06:01:34.599Z,44.25
2018-07-01T06:04:05.092Z,44.09
2018-07-01T06:06:35.162Z,43.71
2018-07-01T06:09:08.205Z,44.69
2018-07-01T06:11:38.881Z,44.63
2018-07-01T06:14:09.419Z,44.67
2018-07-01T06:19:16.493Z,44.27
2018-07-01T06:21:46.874Z,43.93
2018-07-01T06:24:17.528Z,43.71
2018-07-01T06:26:48.013Z,43.64
2018-07-01T06:29:18.831Z,43.79
2018-07-01T06:31:49.208Z,43.43
2018-07-01T06:34:19.613Z,42.53
2018-07-01T06:36:50.146Z,43.33
2018-07-01T06:39:20.363Z,43.14
2018-07-01T06:41:50.499Z,43.49
2018-07-01T06:44:21.056Z,44.05
2018-07-01T06:46:51.770Z,44.21
2018-07-01T06:49:22.589Z,44.47
2018-07-01T06:51:53.119Z,43.66
2018-07-01T06:54:23.390Z,42.47
2018-07-01T06:56:53.793Z,43.66
2018-07-01T06:59:24.157Z,42.96
2018-07-01T07:01:54.332Z,42.50
2018-07-01T07:04:24.587Z,43.55
2018-07-01T07:06:55.038Z,45.29
2018-07-01T07:09:25.136Z,46.49
2018-07-01T07:11:55.464Z,44.91
2018-07-01T07:14:26.445Z,44.20
2018-07-01T07:16:56.762Z,44.10
2018-07-01T07:19:26.917Z,42.44
2018-07-01T07:21:57.212Z,42.17
2018-07-01T07:24:27.532Z,42.75
2018-07-01T07:26:58.402Z,42.87
2018-07-01T07:29:28.599Z,42.78
2018-07-01T07:31:59.141Z,42.75
2018-07-01T07:34:29.313Z,42.04
2018-07-01T07:36:59.334Z,41.58
2018-07-01T07:39:29.331Z,41.92
2018-07-01T07:41:59.723Z,41.66
2018-07-01T07:44:29.806Z,41.49
2018-07-01T07:46:59.859Z,41.62
2018-07-01T07:49:30.115Z,41.53
2018-07-01T07:52:00.315Z,41.19
2018-07-01T07:54:30.275Z,41.05
2018-07-01T07:57:01.008Z,40.48
2018-07-01T07:59:31.119Z,41.37
2018-07-01T08:02:01.275Z,40.81
2018-07-01T08:04:31.492Z,40.68
2018-07-01T08:07:01.564Z,40.83
2018-07-01T08:09:31.627Z,40.86
2018-07-01T08:12:01.884Z,41.14
2018-07-01T08:14:32.154Z,40.38
2018-07-01T08:17:02.233Z,40.69
2018-07-01T08:19:32.235Z,39.97
2018-07-01T08:22:02.825Z,40.28
2018-07-01T08:24:33.551Z,40.70
2018-07-01T08:27:03.839Z,40.13
2018-07-01T08:29:33.996Z,40.05
2018-07-01T08:32:04.327Z,40.45
2018-07-01T08:34:34.724Z,40.32
2018-07-01T08:37:04.985Z,40.15
2018-07-01T08:39:34.985Z,40.51
2018-07-01T08:42:22.916Z,40.51
2018-07-01T08:44:53.884Z,39.79
2018-07-01T08:47:24.119Z,39.96
2018-07-01T08:49:54.532Z,39.27
2018-07-01T08:52:24.752Z,39.16
2018-07-01T08:54:55.683Z,38.83
2018-07-01T08:57:26.436Z,38.73
2018-07-01T08:59:56.734Z,38.17
2018-07-01T09:02:26.940Z,37.22
2018-07-01T09:04:56.955Z,36.83
2018-07-01T09:07:27.110Z,36.38
2018-07-01T09:09:57.371Z,36.41
2018-07-01T09:12:27.501Z,35.39
2018-07-01T09:14:57.673Z,35.29
2018-07-01T09:17:27.909Z,35.62
2018-07-01T09:19:57.997Z,35.48
2018-07-01T09:22:28.109Z,35.22
2018-07-01T09:24:58.078Z,33.65
2018-07-01T09:27:28.152Z,34.08
2018-07-01T09:30:00.431Z,34.86
2018-07-01T09:32:31.223Z,35.44
2018-07-01T09:35:01.647Z,34.90
2018-07-01T09:37:31.861Z,34.96
2018-07-01T09:40:02.714Z,35.79
2018-07-01T09:42:33.120Z,35.21
2018-07-01T09:45:03.126Z,34.36
2018-07-01T09:47:33.619Z,35.03
2018-07-01T09:50:04.038Z,34.85
2018-07-01T09:52:34.066Z,34.85
2018-07-01T09:55:04.230Z,34.92
2018-07-01T09:57:34.398Z,35.08
2018-07-01T10:00:05.676Z,35.40
2018-07-01T10:02:35.599Z,34.09
2018-07-01T10:05:06.274Z,34.38
2018-07-01T10:07:36.228Z,34.36
2018-07-01T10:10:06.867Z,34.64
2018-07-01T10:12:37.073Z,34.30
2018-07-01T10:15:07.077Z,34.18
2018-07-01T10:17:37.108Z,34.38
2018-07-01T10:20:07.113Z,33.96
2018-07-01T10:22:38.875Z,33.92
2018-07-01T10:25:09.001Z,34.40
2018-07-01T10:27:39.077Z,34.89
2018-07-01T10:30:09.031Z,35.27
2018-07-01T10:32:39.022Z,35.25
2018-07-01T10:35:09.539Z,33.57
2018-07-01T10:37:39.479Z,34.10
2018-07-01T10:40:09.908Z,33.66
2018-07-01T10:42:40.125Z,33.72
2018-07-01T10:45:10.308Z,33.38
2018-07-01T10:47:40.754Z,33.02
2018-07-01T10:50:11.107Z,34.29
2018-07-01T10:52:41.636Z,34.53
2018-07-01T10:55:11.703Z,34.29
2018-07-01T10:57:42.383Z,34.65
2018-07-01T11:00:12.966Z,33.68
2018-07-01T11:02:43.131Z,33.57
2018-07-01T11:05:13.425Z,32.67
2018-07-01T11:07:43.526Z,32.53
2018-07-01T11:10:13.580Z,32.37
2018-07-01T11:12:43.468Z,32.86
2018-07-01T11:15:14.049Z,32.79
2018-07-01T11:17:44.074Z,32.35
2018-07-01T11:20:14.487Z,32.42
2018-07-01T11:22:44.875Z,32.19
2018-07-01T11:25:15.741Z,32.35
2018-07-01T11:27:45.760Z,32.25
2018-07-01T11:30:16.169Z,31.69
2018-07-01T11:32:46.415Z,32.10
2018-07-01T11:35:17.370Z,32.12
2018-07-01T11:37:47.502Z,31.53
2018-07-01T11:40:18.375Z,31.72
2018-07-01T11:42:48.831Z,31.56
2018-07-01T11:45:18.945Z,31.80
2018-07-01T11:47:49.154Z,31.60
2018-07-01T11:50:19.409Z,32.10
2018-07-01T11:52:49.702Z,32.53
2018-07-01T11:55:20.675Z,32.18
2018-07-01T11:57:51.044Z,32.69
2018-07-01T12:00:21.003Z,32.20
2018-07-01T12:02:51.132Z,32.46
2018-07-01T12:05:21.499Z,32.69
2018-07-01T12:07:51.304Z,31.84
2018-07-01T12:10:21.606Z,31.24
2018-07-01T12:12:51.730Z,31.75
2018-07-01T12:15:22.251Z,32.19
2018-07-01T12:17:52.462Z,31.49
2018-07-01T12:20:22.799Z,31.10
2018-07-01T12:22:53.097Z,31.54
2018-07-01T12:25:24.724Z,31.08
2018-07-01T12:27:54.784Z,31.83
2018-07-01T12:30:24.906Z,31.65
2018-07-01T12:32:55.082Z,31.43
2018-07-01T12:35:25.251Z,31.43
2018-07-01T12:37:55.395Z,31.06
2018-07-01T12:40:25.534Z,31.79
2018-07-01T12:45:31.378Z,31.25
2018-07-01T12:48:01.692Z,31.40
2018-07-01T12:50:32.111Z,31.56
2018-07-01T12:53:02.662Z,30.94
2018-07-01T12:55:33.193Z,31.06
2018-07-01T12:58:04.097Z,30.89
2018-07-01T13:00:34.451Z,30.47
2018-07-01T13:03:05.055Z,30.65
2018-07-01T13:05:35.014Z,29.75
2018-07-01T13:08:08.517Z,29.88
2018-07-01T13:10:41.949Z,29.80
2018-07-01T13:13:15.353Z,30.06
2018-07-01T13:15:49.028Z,29.64
2018-07-01T13:18:19.570Z,30.05
2018-07-01T13:20:49.851Z,29.93
2018-07-01T13:23:20.128Z,30.56
2018-07-01T13:25:50.344Z,30.04
2018-07-01T13:28:20.707Z,30.23
2018-07-01T13:30:50.666Z,30.27
2018-07-01T13:33:20.966Z,29.46
2018-07-01T13:35:51.164Z,28.99
2018-07-01T13:38:21.497Z,28.81
2018-07-01T13:40:51.663Z,28.65
2018-07-01T13:43:27.475Z,28.88
2018-07-01T13:45:58.104Z,29.15
2018-07-01T13:48:28.366Z,29.97
2018-07-01T13:50:58.576Z,29.30
2018-07-01T13:53:28.993Z,29.74
2018-07-01T13:55:59.353Z,30.04
2018-07-01T13:58:29.730Z,29.31
2018-07-01T14:01:00.134Z,30.14
2018-07-01T14:03:30.348Z,30.18
2018-07-01T14:06:00.811Z,29.50
2018-07-01T14:08:31.027Z,29.51
2018-07-01T14:11:01.651Z,29.37
2018-07-01T14:13:32.090Z,29.65
2018-07-01T14:16:02.342Z,28.75
2018-07-01T14:18:32.452Z,29.52
2018-07-01T14:21:02.542Z,29.10
2018-07-01T14:23:32.818Z,29.82
2018-07-01T14:26:03.149Z,29.47
2018-07-01T14:28:34.238Z,28.81
2018-07-01T14:31:04.386Z,28.79
2018-07-01T14:33:35.165Z,28.99
2018-07-01T14:36:05.535Z,29.06
2018-07-01T14:38:35.739Z,29.32
2018-07-01T14:41:06.064Z,29.51
2018-07-01T14:43:35.990Z,29.10
2018-07-01T14:46:06.241Z,28.74
2018-07-01T14:48:36.868Z,28.78
2018-07-01T14:51:07.721Z,28.76
2018-07-01T14:53:38.057Z,28.53
2018-07-01T14:56:08.380Z,28.90
2018-07-01T14:58:38.922Z,27.87
2018-07-01T15:01:09.467Z,27.72
2018-07-01T15:03:41.868Z,27.83
2018-07-01T15:06:12.777Z,27.85
2018-07-01T15:08:43.308Z,28.36
2018-07-01T15:11:14.062Z,28.26
2018-07-01T15:13:44.532Z,27.88
2018-07-01T15:16:15.007Z,28.37
2018-07-01T15:18:45.640Z,28.02
2018-07-01T15:21:15.997Z,28.01
2018-07-01T15:23:46.500Z,27.27
2018-07-01T15:26:16.737Z,27.46
2018-07-01T15:28:48.134Z,28.05
2018-07-01T15:31:18.816Z,27.57
2018-07-01T15:33:48.882Z,28.34
2018-07-01T15:36:19.469Z,27.87
2018-07-01T15:38:49.770Z,27.72
2018-07-01T15:41:20.339Z,28.33
2018-07-01T15:43:50.662Z,27.88
2018-07-01T15:46:21.154Z,27.68
2018-07-01T15:48:51.674Z,27.59
2018-07-01T15:51:21.907Z,27.68
2018-07-01T15:53:57.551Z,27.33
2018-07-01T15:56:27.947Z,27.90
2018-07-01T15:58:59.208Z,28.03
2018-07-01T16:01:30.322Z,27.90
2018-07-01T16:04:01.068Z,28.18
2018-07-01T16:06:31.318Z,27.60
2018-07-01T16:09:01.779Z,27.49
2018-07-01T16:11:32.239Z,27.79
2018-07-01T16:14:02.678Z,27.26
2018-07-01T16:16:33.039Z,27.46
2018-07-01T16:19:03.712Z,27.78
2018-07-01T16:21:33.857Z,27.27
2018-07-01T16:24:04.390Z,27.25
2018-07-01T16:26:39.851Z,26.83
2018-07-01T16:29:10.510Z,26.86
2018-07-01T16:31:40.787Z,26.54
2018-07-01T16:34:10.973Z,26.38
2018-07-01T16:36:41.427Z,26.46
2018-07-01T16:39:12.797Z,26.58
2018-07-01T16:41:43.086Z,26.74
2018-07-01T16:44:14.137Z,26.93
2018-07-01T16:46:44.578Z,27.30
2018-07-01T16:49:15.064Z,27.52
2018-07-01T16:51:45.396Z,27.29
2018-07-01T16:54:15.833Z,27.29
2018-07-01T16:56:46.345Z,26.96
2018-07-01T16:59:17.098Z,27.79
2018-07-01T17:01:47.405Z,27.04
2018-07-01T17:04:18.380Z,28.05
2018-07-01T17:06:48.687Z,27.87
2018-07-01T17:09:18.840Z,27.27
2018-07-01T17:11:49.134Z,27.86
2018-07-01T17:14:20.100Z,27.62
2018-07-01T17:16:50.411Z,27.65
2018-07-01T17:19:20.644Z,27.49
2018-07-01T17:21:50.977Z,27.47
2018-07-01T17:24:21.150Z,27.94
2018-07-01T17:26:52.225Z,27.68
2018-07-01T17:29:22.959Z,27.84
2018-07-01T17:31:58.306Z,28.26
2018-07-01T17:34:28.355Z,27.83
2018-07-01T17:37:05.593Z,27.22
2018-07-01T17:39:35.932Z,27.25
2018-07-01T17:42:06.855Z,26.79
2018-07-01T17:44:37.181Z,27.20
2018-07-01T17:47:07.435Z,27.74
2018-07-01T17:49:37.852Z,27.32
2018-07-01T17:52:08.269Z,27.09
2018-07-01T17:54:39.344Z,27.73
2018-07-01T17:57:09.828Z,27.36
2018-07-01T17:59:40.764Z,27.84
2018-07-01T18:02:11.043Z,27.44
2018-07-01T18:04:41.440Z,28.18
2018-07-01T18:07:11.540Z,27.62
2018-07-01T18:09:42.000Z,27.69
2018-07-01T18:12:12.244Z,28.24
2018-07-01T18:14:42.571Z,28.39
2018-07-01T18:17:12.821Z,28.41
2018-07-01T18:19:42.990Z,28.45
2018-07-01T18:22:16.928Z,28.34
2018-07-01T18:24:58.066Z,28.37
2018-07-01T18:27:13.671Z,29.04
2018-07-01T18:29:44.504Z,29.36
2018-07-01T18:32:14.717Z,29.47
2018-07-01T18:34:45.104Z,29.91
2018-07-01T18:37:15.430Z,29.64
2018-07-01T18:39:45.429Z,29.56
2018-07-01T18:42:15.548Z,29.96
2018-07-01T18:44:45.564Z,29.46
2018-07-01T18:47:15.788Z,29.95
2018-07-01T18:49:47.352Z,29.05
2018-07-01T18:52:17.666Z,29.25
2018-07-01T18:54:47.799Z,29.48
2018-07-01T18:57:17.966Z,29.52
2018-07-01T18:59:47.978Z,29.80
2018-07-01T19:02:18.150Z,29.58
2018-07-01T19:04:48.366Z,31.09
2018-07-01T19:07:18.839Z,30.07
2018-07-01T19:09:49.067Z,31.01
2018-07-01T19:12:19.213Z,30.85
2018-07-01T19:14:49.434Z,30.21
2018-07-01T19:17:19.589Z,30.69
2018-07-01T19:19:49.776Z,30.94
2018-07-01T19:22:19.914Z,31.33
2018-07-01T19:24:50.493Z,30.81
2018-07-01T19:27:20.721Z,31.42
2018-07-01T19:29:51.355Z,31.50
2018-07-01T19:32:21.653Z,31.35
2018-07-01T19:37:27.862Z,34.51
2018-07-01T19:39:58.027Z,33.08
2018-07-01T19:42:28.225Z,32.90
2018-07-01T19:44:58.660Z,32.56
2018-07-01T19:47:28.953Z,34.92
2018-07-01T19:49:59.051Z,32.89
2018-07-01T19:52:29.368Z,32.82
2018-07-01T19:54:59.989Z,31.98
2018-07-01T19:57:30.261Z,32.45
2018-07-01T20:00:00.402Z,31.71
2018-07-01T20:02:30.628Z,32.04
2018-07-01T20:05:01.009Z,31.77
2018-07-01T20:07:31.061Z,32.11
2018-07-01T20:10:01.125Z,31.83
2018-07-01T20:12:31.197Z,32.44
2018-07-01T20:15:01.312Z,32.31
2018-07-01T20:17:31.667Z,32.93
2018-07-01T20:20:01.704Z,32.47
2018-07-01T20:22:31.591Z,32.44
2018-07-01T20:25:01.760Z,32.59
2018-07-01T20:27:31.821Z,32.86
2018-07-01T20:30:02.007Z,32.90
2018-07-01T20:32:32.163Z,32.64
2018-07-01T20:35:02.446Z,33.14
2018-07-01T20:37:33.054Z,32.86
2018-07-01T20:40:03.265Z,33.65
2018-07-01T20:42:33.353Z,33.75
2018-07-01T20:45:03.853Z,32.99
2018-07-01T20:47:34.147Z,32.35
2018-07-01T20:50:05.088Z,33.15
2018-07-01T20:52:36.164Z,32.68
2018-07-01T20:55:06.799Z,32.07
2018-07-01T20:57:37.976Z,32.92
2018-07-01T21:00:09.093Z,32.85
2018-07-01T21:02:39.453Z,33.03
2018-07-01T21:05:09.880Z,32.24
2018-07-01T21:07:40.360Z,32.03
2018-07-01T21:10:10.713Z,33.14
2018-07-01T21:12:41.033Z,32.62
2018-07-01T21:15:11.365Z,33.62
2018-07-01T21:17:41.796Z,33.66
2018-07-01T21:20:12.555Z,33.37
2018-07-01T21:22:42.714Z,34.07
2018-07-01T21:25:13.190Z,34.78
2018-07-01T21:27:43.306Z,33.91
2018-07-01T21:30:13.377Z,34.69
2018-07-01T21:32:43.847Z,36.00
2018-07-01T21:35:14.349Z,35.76
2018-07-01T21:37:45.367Z,35.73
2018-07-01T21:40:15.527Z,35.87
2018-07-01T21:42:46.118Z,36.65
2018-07-01T21:45:16.536Z,35.98
2018-07-01T21:47:46.847Z,35.96
2018-07-01T21:50:17.105Z,35.98
2018-07-01T21:52:54.057Z,36.06
2018-07-01T21:55:24.274Z,37.50
2018-07-01T21:57:54.497Z,36.81
2018-07-01T22:00:29.803Z,37.01
2018-07-01T22:03:00.285Z,36.86
2018-07-01T22:05:30.962Z,37.50
2018-07-01T22:08:01.248Z,37.47
2018-07-01T22:10:42.274Z,37.37
2018-07-01T22:14:19.796Z,37.30
2018-07-01T22:16:49.770Z,37.43
2018-07-01T22:19:20.234Z,37.61
2018-07-01T22:21:52.020Z,37.58
2018-07-01T22:24:22.437Z,37.19
2018-07-01T22:26:52.750Z,37.88
2018-07-01T22:29:23.070Z,37.52
2018-07-01T22:31:53.287Z,38.25
2018-07-01T22:34:23.821Z,38.40
2018-07-01T22:36:54.975Z,38.48
2018-07-01T22:39:26.395Z,38.06
2018-07-01T22:41:57.634Z,37.92
2018-07-01T22:44:29.582Z,38.12
2018-07-01T22:46:59.820Z,38.36
2018-07-01T22:49:30.095Z,37.99
2018-07-01T22:52:00.937Z,38.43
2018-07-01T22:54:31.567Z,38.43
2018-07-01T22:57:01.739Z,38.76
2018-07-01T22:59:31.680Z,38.36
2018-07-01T23:03:11.546Z,38.23
2018-07-01T23:05:41.158Z,38.82
2018-07-01T23:08:11.573Z,39.31
2018-07-01T23:10:41.799Z,39.11
2018-07-01T23:13:12.206Z,39.38
2018-07-01T23:15:42.553Z,39.50
2018-07-01T23:18:12.967Z,39.40
2018-07-01T23:20:43.421Z,38.97
2018-07-01T23:23:13.789Z,39.28
2018-07-01T23:25:44.054Z,39.36
2018-07-01T23:28:14.598Z,39.50
2018-07-01T23:30:44.990Z,39.35
2018-07-01T23:33:15.344Z,39.52
2018-07-01T23:35:45.641Z,39.80
2018-07-01T23:38:15.775Z,39.64
2018-07-01T23:40:46.010Z,39.42
2018-07-01T23:43:16.366Z,39.52
2018-07-01T23:45:46.663Z,39.51
2018-07-01T23:48:17.575Z,40.04
2018-07-01T23:50:48.551Z,40.38
2018-07-01T23:53:18.822Z,40.37
2018-07-01T23:55:49.290Z,40.71
2018-07-01T23:58:19.375Z,40.03
